Time;durP1;ratioP1;P1;durP2;ratioP2;P2;SDS_P1;SDS_P2;PMS_P1;PMS_P2;Temp;Humidity;BMP_temperature;BMP_pressure;BME280_temperature;BME280_humidity;BME280_pressure;Samples;Min_cycle;Max_cycle;Signal;HPM_P1;HPM_P2
2022/06/28 00:00:32;;;;;;;0.00;0.00;;;;;;;;;;5008547;28;20046;-68
2022/06/28 00:03:00;;;;;;;0.03;0.03;;;;;;;;;;5008437;28;20558;-68
2022/06/28 00:05:30;;;;;;;0.13;0.13;;;;;;;;;;5009448;28;20141;-68
2022/06/28 00:07:59;;;;;;;0.32;0.13;;;;;;;;;;5009526;28;20108;-68
2022/06/28 00:10:27;;;;;;;0.10;0.10;;;;;;;;;;5010230;28;20093;-68
2022/06/28 00:12:56;;;;;;;0.32;0.20;;;;;;;;;;5008532;28;20066;-68
2022/06/28 00:18:11;;;;;;;0.10;0.10;;;;;;;;;;5008441;28;20584;-68
2022/06/28 00:20:41;;;;;;;0.10;0.10;;;;;;;;;;5007158;28;20042;-68
2022/06/28 00:23:09;;;;;;;0.30;0.30;;;;;;;;;;5009120;28;20140;-68
2022/06/28 00:25:38;;;;;;;0.25;0.17;;;;;;;;;;5009009;28;20100;-68
2022/06/28 00:28:06;;;;;;;0.00;0.00;;;;;;;;;;5005332;28;20084;-68
2022/06/28 00:30:34;;;;;;;0.15;0.15;;;;;;;;;;5010513;28;20160;-67
2022/06/28 00:33:03;;;;;;;0.30;0.30;;;;;;;;;;5007717;28;20133;-67
2022/06/28 00:35:31;;;;;;;0.17;0.17;;;;;;;;;;5008580;28;20117;-67
2022/06/28 00:38:01;;;;;;;0.10;0.10;;;;;;;;;;5008049;28;20093;-68
2022/06/28 00:40:29;;;;;;;0.10;0.10;;;;;;;;;;5009529;28;20144;-67
2022/06/28 00:42:58;;;;;;;0.28;0.28;;;;;;;;;;5009430;28;20339;-68
2022/06/28 00:45:27;;;;;;;0.10;0.10;;;;;;;;;;5009080;28;20402;-68
2022/06/28 00:47:56;;;;;;;0.13;0.13;;;;;;;;;;5008655;28;20137;-68
2022/06/28 00:50:25;;;;;;;0.08;0.08;;;;;;;;;;5006783;28;20128;-68
2022/06/28 00:53:01;;;;;;;1.40;0.60;;;;;;;;;;5008428;28;20133;-67
2022/06/28 00:55:30;;;;;;;0.20;0.20;;;;;;;;;;5009065;28;20049;-68
2022/06/28 00:57:58;;;;;;;0.00;0.00;;;;;;;;;;5005311;28;20069;-67
2022/06/28 01:00:26;;;;;;;0.15;0.15;;;;;;;;;;5010686;28;20134;-67
2022/06/28 01:02:55;;;;;;;0.22;0.22;;;;;;;;;;5006758;28;20092;-67
2022/06/28 01:05:24;;;;;;;0.10;0.10;;;;;;;;;;5009411;28;20053;-68
2022/06/28 01:07:52;;;;;;;0.10;0.10;;;;;;;;;;5006818;28;20050;-68
2022/06/28 01:10:23;;;;;;;0.43;0.43;;;;;;;;;;5010052;28;20049;-68
2022/06/28 01:12:51;;;;;;;0.22;0.20;;;;;;;;;;5007557;28;20050;-67
2022/06/28 01:15:19;;;;;;;0.10;0.10;;;;;;;;;;5008836;28;20073;-68
2022/06/28 01:17:48;;;;;;;0.32;0.22;;;;;;;;;;5007234;28;20081;-68
2022/06/28 01:20:16;;;;;;;0.28;0.28;;;;;;;;;;5006615;28;20137;-68
2022/06/28 01:22:46;;;;;;;0.00;0.00;;;;;;;;;;5008941;28;20088;-68
2022/06/28 01:25:14;;;;;;;0.15;0.13;;;;;;;;;;5004780;28;20084;-68
2022/06/28 01:27:43;;;;;;;0.10;0.10;;;;;;;;;;5007643;28;20081;-68
2022/06/28 01:30:11;;;;;;;0.00;0.00;;;;;;;;;;5005378;28;20081;-68
2022/06/28 01:32:40;;;;;;;0.05;0.05;;;;;;;;;;5005847;28;20081;-68
2022/06/28 01:35:09;;;;;;;0.25;0.25;;;;;;;;;;5007427;28;20050;-68
2022/06/28 01:37:38;;;;;;;0.05;0.05;;;;;;;;;;5008619;28;20173;-67
2022/06/28 01:40:08;;;;;;;0.00;0.00;;;;;;;;;;5010115;28;20077;-67
2022/06/28 01:42:37;;;;;;;0.00;0.00;;;;;;;;;;5007076;28;20486;-67
2022/06/28 01:45:07;;;;;;;0.22;0.20;;;;;;;;;;5008815;28;20042;-67
2022/06/28 01:47:36;;;;;;;0.30;0.10;;;;;;;;;;5007779;28;20048;-67
2022/06/28 01:50:05;;;;;;;0.32;0.10;;;;;;;;;;5007778;28;20132;-67
2022/06/28 01:52:33;;;;;;;0.08;0.08;;;;;;;;;;5009528;28;20121;-68
2022/06/28 01:55:02;;;;;;;0.17;0.17;;;;;;;;;;5005478;28;20261;-68
2022/06/28 01:57:31;;;;;;;1.35;0.30;;;;;;;;;;5009729;28;20129;-67
2022/06/28 02:00:00;;;;;;;0.00;0.00;;;;;;;;;;5007429;28;20050;-67
2022/06/28 02:02:28;;;;;;;0.00;0.00;;;;;;;;;;5007060;28;20093;-68
2022/06/28 02:04:57;;;;;;;0.52;0.52;;;;;;;;;;5010383;28;20046;-67
2022/06/28 02:07:25;;;;;;;0.10;0.10;;;;;;;;;;5007825;28;20042;-67
2022/06/28 02:09:54;;;;;;;0.00;0.00;;;;;;;;;;5007555;28;20069;-67
2022/06/28 02:12:22;;;;;;;0.20;0.20;;;;;;;;;;5009493;28;20129;-68
2022/06/28 02:14:52;;;;;;;0.10;0.10;;;;;;;;;;5012968;28;20409;-67
2022/06/28 02:17:20;;;;;;;0.10;0.10;;;;;;;;;;5011647;28;20077;-67
2022/06/28 02:19:49;;;;;;;0.17;0.17;;;;;;;;;;5009317;28;20042;-67
2022/06/28 02:22:17;;;;;;;0.47;0.22;;;;;;;;;;5011282;28;20081;-67
2022/06/28 02:24:46;;;;;;;0.10;0.10;;;;;;;;;;5012134;28;20041;-68
2022/06/28 02:27:14;;;;;;;0.22;0.10;;;;;;;;;;5011047;28;20054;-68
2022/06/28 02:29:43;;;;;;;0.08;0.08;;;;;;;;;;5011287;28;20477;-68
2022/06/28 02:32:12;;;;;;;1.02;0.32;;;;;;;;;;5008818;28;20446;-68
2022/06/28 02:40:27;;;;;;;0.10;0.10;;;;;;;;;;4957823;28;20085;-68
2022/06/28 02:42:56;;;;;;;0.08;0.08;;;;;;;;;;4987864;28;20137;-68
2022/06/28 02:45:26;;;;;;;0.00;0.00;;;;;;;;;;5012624;28;20041;-68
2022/06/28 02:47:55;;;;;;;0.10;0.10;;;;;;;;;;5011102;28;20041;-68
2022/06/28 02:50:24;;;;;;;0.10;0.10;;;;;;;;;;5012717;28;20196;-68
2022/06/28 02:52:53;;;;;;;0.10;0.10;;;;;;;;;;5010893;28;20116;-68
2022/06/28 02:55:21;;;;;;;0.55;0.28;;;;;;;;;;5007510;28;20058;-68
2022/06/28 02:57:49;;;;;;;0.00;0.00;;;;;;;;;;5011609;28;20081;-68
2022/06/28 03:00:19;;;;;;;0.22;0.22;;;;;;;;;;5012512;28;20057;-68
2022/06/28 03:02:48;;;;;;;0.30;0.20;;;;;;;;;;5010775;28;20049;-68
2022/06/28 03:05:19;;;;;;;0.15;0.13;;;;;;;;;;5011848;28;20050;-68
2022/06/28 03:07:47;;;;;;;0.00;0.00;;;;;;;;;;5009995;28;20394;-68
2022/06/28 03:10:18;;;;;;;0.00;0.00;;;;;;;;;;5010359;28;20085;-68
2022/06/28 03:12:47;;;;;;;0.13;0.13;;;;;;;;;;5012315;28;20094;-68
2022/06/28 03:15:15;;;;;;;0.20;0.20;;;;;;;;;;5009685;28;20078;-68
2022/06/28 03:17:49;;;;;;;0.63;0.63;;;;;;;;;;5010338;28;20498;-68
2022/06/28 03:20:19;;;;;;;0.00;0.00;;;;;;;;;;5010861;28;20880;-68
2022/06/28 03:22:47;;;;;;;0.20;0.20;;;;;;;;;;5011761;28;20125;-68
2022/06/28 03:25:16;;;;;;;0.70;0.70;;;;;;;;;;5010761;28;20473;-68
2022/06/28 03:27:44;;;;;;;0.20;0.20;;;;;;;;;;5009649;28;20141;-68
2022/06/28 03:30:12;;;;;;;0.85;0.43;;;;;;;;;;5010923;28;20116;-68
2022/06/28 03:32:41;;;;;;;0.00;0.00;;;;;;;;;;5011800;28;20041;-68
2022/06/28 03:35:10;;;;;;;0.03;0.03;;;;;;;;;;5009033;28;20069;-68
2022/06/28 03:37:40;;;;;;;0.20;0.20;;;;;;;;;;5008853;28;20501;-68
2022/06/28 03:40:09;;;;;;;0.17;0.17;;;;;;;;;;5009666;28;20481;-68
2022/06/28 03:42:37;;;;;;;0.13;0.13;;;;;;;;;;5009894;28;20080;-68
2022/06/28 03:45:07;;;;;;;0.13;0.13;;;;;;;;;;5008927;28;20136;-68
2022/06/28 03:47:35;;;;;;;0.38;0.38;;;;;;;;;;5008188;28;20603;-67
2022/06/28 03:50:04;;;;;;;0.10;0.10;;;;;;;;;;5009879;28;20153;-68
2022/06/28 03:52:32;;;;;;;0.15;0.15;;;;;;;;;;5010689;28;20073;-68
2022/06/28 03:55:03;;;;;;;0.13;0.13;;;;;;;;;;5010768;28;20737;-68
2022/06/28 03:57:31;;;;;;;0.20;0.10;;;;;;;;;;5008876;28;20748;-65
2022/06/28 04:00:01;;;;;;;0.00;0.00;;;;;;;;;;5011882;28;20081;-68
2022/06/28 04:02:29;;;;;;;0.10;0.10;;;;;;;;;;5011996;28;20049;-68
2022/06/28 04:04:58;;;;;;;0.13;0.13;;;;;;;;;;5009856;28;20185;-68
2022/06/28 04:07:27;;;;;;;0.30;0.30;;;;;;;;;;5007356;28;20125;-68
2022/06/28 04:09:55;;;;;;;0.38;0.10;;;;;;;;;;5010695;28;20076;-68
2022/06/28 04:12:25;;;;;;;0.00;0.00;;;;;;;;;;5008505;28;20125;-67
2022/06/28 04:14:53;;;;;;;0.17;0.17;;;;;;;;;;5008880;28;20070;-68
2022/06/28 04:17:22;;;;;;;1.42;0.30;;;;;;;;;;5007073;28;20089;-68
2022/06/28 04:19:50;;;;;;;0.00;0.00;;;;;;;;;;5009850;28;20089;-68
2022/06/28 04:22:18;;;;;;;0.10;0.10;;;;;;;;;;5010192;28;20129;-68
2022/06/28 04:24:47;;;;;;;0.08;0.08;;;;;;;;;;5005712;28;20088;-68
2022/06/28 04:27:15;;;;;;;0.55;0.32;;;;;;;;;;5009211;28;20124;-68
2022/06/28 04:29:45;;;;;;;0.20;0.17;;;;;;;;;;5008620;28;20093;-68
2022/06/28 04:32:13;;;;;;;0.03;0.03;;;;;;;;;;5009631;28;20156;-70
2022/06/28 04:34:42;;;;;;;0.10;0.10;;;;;;;;;;5004838;28;20050;-68
2022/06/28 04:37:10;;;;;;;0.20;0.10;;;;;;;;;;5003392;28;20048;-65
2022/06/28 04:39:38;;;;;;;0.43;0.43;;;;;;;;;;5005499;28;20506;-65
2022/06/28 04:42:07;;;;;;;0.63;0.43;;;;;;;;;;5002038;28;20405;-65
2022/06/28 04:44:36;;;;;;;0.10;0.10;;;;;;;;;;5005368;28;20046;-65
2022/06/28 04:47:06;;;;;;;0.20;0.20;;;;;;;;;;5002216;28;20096;-66
2022/06/28 04:49:34;;;;;;;0.10;0.10;;;;;;;;;;5005336;28;20118;-66
2022/06/28 04:52:03;;;;;;;0.57;0.20;;;;;;;;;;5005745;28;20081;-66
2022/06/28 04:54:31;;;;;;;0.20;0.15;;;;;;;;;;5002549;28;20046;-66
2022/06/28 04:56:59;;;;;;;0.10;0.10;;;;;;;;;;5006426;28;20466;-65
2022/06/28 04:59:28;;;;;;;0.00;0.00;;;;;;;;;;5009791;28;20148;-65
2022/06/28 05:01:56;;;;;;;0.20;0.20;;;;;;;;;;5008933;28;20145;-64
2022/06/28 05:04:26;;;;;;;0.13;0.13;;;;;;;;;;5006799;28;20042;-65
2022/06/28 05:06:54;;;;;;;0.40;0.40;;;;;;;;;;5001250;28;20462;-66
2022/06/28 05:09:23;;;;;;;0.00;0.00;;;;;;;;;;5001424;28;20414;-67
2022/06/28 05:12:07;;;;;;;0.20;0.20;;;;;;;;;;4996820;28;20140;-67
2022/06/28 05:14:35;;;;;;;0.20;0.10;;;;;;;;;;5009641;28;20096;-67
2022/06/28 05:17:04;;;;;;;0.20;0.10;;;;;;;;;;4997534;28;20085;-67
2022/06/28 05:19:35;;;;;;;0.20;0.20;;;;;;;;;;5007215;28;20330;-67
2022/06/28 05:22:04;;;;;;;0.57;0.57;;;;;;;;;;4999671;28;20096;-67
2022/06/28 05:24:32;;;;;;;0.20;0.17;;;;;;;;;;5005581;28;20757;-67
2022/06/28 05:27:00;;;;;;;0.55;0.25;;;;;;;;;;5006238;28;20132;-67
2022/06/28 05:29:29;;;;;;;0.10;0.10;;;;;;;;;;5007233;28;20050;-67
2022/06/28 05:31:57;;;;;;;0.20;0.10;;;;;;;;;;5005696;28;20085;-67
2022/06/28 05:34:27;;;;;;;0.20;0.20;;;;;;;;;;5011071;28;20133;-67
2022/06/28 05:36:56;;;;;;;0.60;0.60;;;;;;;;;;5008410;28;20129;-67
2022/06/28 05:39:25;;;;;;;0.10;0.05;;;;;;;;;;5010786;28;20528;-67
2022/06/28 05:41:53;;;;;;;0.05;0.05;;;;;;;;;;5010854;28;20077;-67
2022/06/28 05:44:22;;;;;;;0.10;0.10;;;;;;;;;;5011231;28;20133;-67
2022/06/28 05:46:51;;;;;;;0.20;0.20;;;;;;;;;;4986830;28;20047;-68
2022/06/28 05:49:20;;;;;;;0.00;0.00;;;;;;;;;;4961455;28;20457;-68
2022/06/28 05:51:48;;;;;;;0.10;0.10;;;;;;;;;;4963105;28;20569;-68
2022/06/28 05:54:18;;;;;;;0.40;0.40;;;;;;;;;;4957777;28;20055;-69
2022/06/28 05:56:47;;;;;;;0.10;0.10;;;;;;;;;;4954489;28;20043;-68
2022/06/28 05:59:15;;;;;;;0.40;0.40;;;;;;;;;;4961388;28;20046;-68
2022/06/28 06:01:44;;;;;;;0.40;0.40;;;;;;;;;;4955033;28;20047;-68
2022/06/28 06:04:12;;;;;;;0.45;0.20;;;;;;;;;;4951374;29;20050;-68
2022/06/28 06:06:41;;;;;;;0.30;0.22;;;;;;;;;;4963970;28;20074;-68
2022/06/28 06:09:09;;;;;;;0.45;0.45;;;;;;;;;;4966113;28;20047;-68
2022/06/28 06:11:39;;;;;;;0.00;0.00;;;;;;;;;;4968556;28;20050;-68
2022/06/28 06:14:08;;;;;;;0.75;0.20;;;;;;;;;;5003360;28;20092;-69
2022/06/28 06:16:36;;;;;;;1.45;0.47;;;;;;;;;;5010067;28;20054;-68
2022/06/28 06:19:05;;;;;;;0.10;0.10;;;;;;;;;;5012124;28;20050;-68
2022/06/28 06:21:34;;;;;;;3.05;0.28;;;;;;;;;;5011544;28;20424;-69
2022/06/28 06:24:02;;;;;;;0.00;0.00;;;;;;;;;;5005382;28;20112;-69
2022/06/28 06:26:31;;;;;;;0.10;0.10;;;;;;;;;;5009784;28;20053;-68
2022/06/28 06:29:01;;;;;;;0.00;0.00;;;;;;;;;;5009789;28;20112;-68
2022/06/28 06:31:30;;;;;;;0.00;0.00;;;;;;;;;;5010715;28;20080;-68
2022/06/28 06:33:58;;;;;;;0.52;0.35;;;;;;;;;;5008790;28;20156;-68
2022/06/28 06:36:27;;;;;;;0.30;0.20;;;;;;;;;;5010695;28;20096;-68
2022/06/28 06:38:55;;;;;;;0.10;0.10;;;;;;;;;;5002049;28;20781;-68
2022/06/28 06:41:24;;;;;;;0.00;0.00;;;;;;;;;;5009677;28;20080;-69
2022/06/28 06:43:54;;;;;;;0.00;0.00;;;;;;;;;;5009701;28;20489;-69
2022/06/28 06:46:24;;;;;;;0.32;0.13;;;;;;;;;;5007518;28;20046;-69
2022/06/28 06:48:53;;;;;;;0.08;0.08;;;;;;;;;;5008929;28;20453;-70
2022/06/28 06:51:22;;;;;;;0.35;0.20;;;;;;;;;;5012265;28;20054;-70
2022/06/28 06:53:50;;;;;;;0.77;0.38;;;;;;;;;;5009417;28;20081;-70
2022/06/28 06:56:19;;;;;;;0.00;0.00;;;;;;;;;;5010935;28;20567;-70
2022/06/28 06:58:47;;;;;;;0.10;0.10;;;;;;;;;;5010968;28;20560;-70
2022/06/28 07:01:16;;;;;;;0.32;0.32;;;;;;;;;;5013518;28;20100;-70
2022/06/28 07:04:06;;;;;;;0.15;0.15;;;;;;;;;;5016949;28;20046;-70
2022/06/28 07:06:34;;;;;;;0.20;0.20;;;;;;;;;;5012982;28;20482;-70
2022/06/28 07:09:03;;;;;;;0.63;0.38;;;;;;;;;;5012030;28;20042;-70
2022/06/28 07:11:32;;;;;;;0.10;0.10;;;;;;;;;;5013371;28;20077;-70
2022/06/28 07:14:00;;;;;;;0.32;0.20;;;;;;;;;;5011063;28;20099;-71
2022/06/28 07:16:28;;;;;;;0.20;0.10;;;;;;;;;;5013742;28;20120;-71
2022/06/28 07:18:58;;;;;;;0.00;0.00;;;;;;;;;;5011512;28;20057;-70
2022/06/28 07:21:28;;;;;;;0.20;0.20;;;;;;;;;;5013397;28;20112;-70
2022/06/28 07:23:57;;;;;;;0.35;0.10;;;;;;;;;;5012073;28;20077;-70
2022/06/28 07:26:25;;;;;;;0.00;0.00;;;;;;;;;;5011368;28;20124;-70
2022/06/28 07:28:53;;;;;;;0.00;0.00;;;;;;;;;;5008333;28;20129;-70
2022/06/28 07:31:22;;;;;;;0.13;0.13;;;;;;;;;;5012284;28;20081;-70
2022/06/28 07:33:51;;;;;;;0.20;0.20;;;;;;;;;;5010715;28;20081;-70
2022/06/28 07:36:19;;;;;;;0.47;0.30;;;;;;;;;;5009196;28;20042;-70
2022/06/28 07:38:49;;;;;;;0.10;0.10;;;;;;;;;;5007611;28;20084;-70
2022/06/28 07:41:18;;;;;;;0.43;0.20;;;;;;;;;;5011623;28;20089;-70
2022/06/28 07:43:46;;;;;;;0.45;0.22;;;;;;;;;;5012035;28;20437;-69
2022/06/28 07:46:15;;;;;;;0.00;0.00;;;;;;;;;;5012275;28;20549;-70
2022/06/28 07:48:43;;;;;;;0.10;0.10;;;;;;;;;;5008544;28;20132;-70
2022/06/28 07:53:59;;;;;;;0.03;0.03;;;;;;;;;;5001101;28;20049;-70
2022/06/28 07:56:28;;;;;;;0.15;0.10;;;;;;;;;;5008137;28;20058;-67
2022/06/28 07:58:57;;;;;;;0.10;0.10;;;;;;;;;;4995261;28;20042;-67
2022/06/28 08:01:25;;;;;;;0.32;0.10;;;;;;;;;;5007951;28;20119;-69
2022/06/28 08:03:54;;;;;;;0.22;0.13;;;;;;;;;;5010814;28;20097;-67
2022/06/28 08:06:23;;;;;;;0.00;0.00;;;;;;;;;;5010662;28;20132;-70
2022/06/28 08:08:51;;;;;;;0.38;0.22;;;;;;;;;;5006051;28;20561;-68
2022/06/28 08:11:21;;;;;;;0.13;0.13;;;;;;;;;;5011855;28;20080;-67
2022/06/28 08:13:52;;;;;;;0.00;0.00;;;;;;;;;;5009871;28;20112;-67
2022/06/28 08:16:20;;;;;;;0.00;0.00;;;;;;;;;;5005172;28;20421;-71
2022/06/28 08:18:49;;;;;;;0.15;0.15;;;;;;;;;;5009169;28;20101;-68
2022/06/28 08:21:21;;;;;;;0.00;0.00;;;;;;;;;;5000559;28;20047;-68
2022/06/28 08:23:49;;;;;;;0.10;0.10;;;;;;;;;;5010469;28;20477;-67
2022/06/28 08:26:18;;;;;;;0.20;0.20;;;;;;;;;;5004152;28;20549;-68
2022/06/28 08:28:48;;;;;;;0.10;0.10;;;;;;;;;;5009264;28;20058;-68
2022/06/28 08:31:17;;;;;;;0.32;0.20;;;;;;;;;;5001174;28;20042;-68
2022/06/28 08:33:46;;;;;;;0.88;0.60;;;;;;;;;;5004081;28;20509;-68
2022/06/28 08:36:14;;;;;;;0.80;0.10;;;;;;;;;;4998005;28;20053;-68
2022/06/28 08:38:43;;;;;;;0.00;0.00;;;;;;;;;;5007137;28;20119;-68
2022/06/28 08:41:11;;;;;;;0.00;0.00;;;;;;;;;;5011545;28;20125;-68
2022/06/28 08:43:40;;;;;;;0.03;0.03;;;;;;;;;;5010785;28;20128;-67
2022/06/28 08:46:10;;;;;;;0.03;0.03;;;;;;;;;;5011825;28;20061;-68
2022/06/28 08:48:41;;;;;;;0.25;0.25;;;;;;;;;;4996822;28;20042;-67
2022/06/28 08:51:10;;;;;;;0.03;0.03;;;;;;;;;;5011951;28;20662;-68
2022/06/28 08:53:40;;;;;;;0.10;0.10;;;;;;;;;;5012116;28;20074;-68
2022/06/28 08:56:09;;;;;;;0.05;0.03;;;;;;;;;;5010895;28;20462;-68
2022/06/28 08:58:39;;;;;;;0.10;0.10;;;;;;;;;;5009535;28;20053;-68
2022/06/28 09:01:10;;;;;;;0.20;0.20;;;;;;;;;;5006777;28;20129;-68
2022/06/28 09:03:39;;;;;;;0.00;0.00;;;;;;;;;;5010222;28;20119;-67
2022/06/28 09:06:08;;;;;;;0.13;0.13;;;;;;;;;;5010658;28;20144;-67
2022/06/28 09:08:37;;;;;;;0.00;0.00;;;;;;;;;;5010764;28;20042;-68
2022/06/28 09:11:09;;;;;;;0.00;0.00;;;;;;;;;;5009977;28;20050;-68
2022/06/28 09:13:38;;;;;;;0.10;0.10;;;;;;;;;;5009323;28;20054;-68
2022/06/28 09:16:11;;;;;;;0.32;0.10;;;;;;;;;;5007935;28;20050;-68
2022/06/28 09:18:47;;;;;;;0.00;0.00;;;;;;;;;;5008650;28;20062;-69
2022/06/28 09:21:16;;;;;;;0.22;0.22;;;;;;;;;;5008967;28;20045;-69
2022/06/28 09:23:46;;;;;;;0.03;0.03;;;;;;;;;;5010082;28;20057;-70
2022/06/28 09:26:16;;;;;;;0.30;0.30;;;;;;;;;;5008166;28;20443;-68
2022/06/28 09:28:46;;;;;;;0.47;0.47;;;;;;;;;;5005238;28;20049;-68
2022/06/28 09:31:20;;;;;;;0.47;0.47;;;;;;;;;;5008009;28;20046;-68
2022/06/28 09:33:50;;;;;;;0.00;0.00;;;;;;;;;;5011242;28;20053;-68
2022/06/28 09:36:19;;;;;;;0.08;0.08;;;;;;;;;;5009442;28;20521;-70
2022/06/28 09:38:47;;;;;;;0.08;0.08;;;;;;;;;;5008021;28;20528;-70
2022/06/28 09:41:23;;;;;;;0.10;0.10;;;;;;;;;;5005342;28;20057;-69
2022/06/28 09:43:59;;;;;;;0.10;0.10;;;;;;;;;;5010014;28;20107;-70
2022/06/28 09:46:30;;;;;;;9.00;0.30;;;;;;;;;;5009932;28;20042;-70
2022/06/28 09:49:00;;;;;;;0.10;0.10;;;;;;;;;;5007284;28;20052;-69
2022/06/28 09:51:30;;;;;;;0.10;0.10;;;;;;;;;;5008711;28;20158;-69
2022/06/28 09:54:00;;;;;;;0.00;0.00;;;;;;;;;;5008444;28;20087;-70
2022/06/28 09:56:52;;;;;;;0.10;0.10;;;;;;;;;;5008656;28;20058;-70
2022/06/28 09:59:22;;;;;;;0.20;0.20;;;;;;;;;;5012531;28;20113;-69
2022/06/28 10:01:52;;;;;;;0.00;0.00;;;;;;;;;;5011116;28;20457;-69
2022/06/28 10:04:22;;;;;;;0.17;0.17;;;;;;;;;;5007372;28;20085;-69
2022/06/28 10:06:50;;;;;;;0.40;0.40;;;;;;;;;;5011408;28;20057;-69
2022/06/28 10:09:19;;;;;;;0.00;0.00;;;;;;;;;;5010560;28;20053;-69
2022/06/28 10:17:39;;;;;;;0.10;0.10;;;;;;;;;;4995921;28;20050;-69
2022/06/28 10:20:08;;;;;;;0.20;0.20;;;;;;;;;;5009532;28;20087;-69
2022/06/28 10:22:37;;;;;;;0.00;0.00;;;;;;;;;;5009205;28;20125;-69
2022/06/28 10:25:14;;;;;;;0.00;0.00;;;;;;;;;;5007070;28;20046;-69
2022/06/28 10:27:47;;;;;;;0.28;0.28;;;;;;;;;;5008175;28;20106;-69
2022/06/28 10:30:22;;;;;;;0.70;0.63;;;;;;;;;;4991678;28;20053;-69
2022/06/28 10:32:53;;;;;;;0.25;0.25;;;;;;;;;;5005675;28;20049;-69
2022/06/28 10:35:36;;;;;;;0.05;0.05;;;;;;;;;;5005326;28;20474;-69
2022/06/28 10:38:17;;;;;;;0.00;0.00;;;;;;;;;;5008507;28;20054;-69
2022/06/28 10:40:49;;;;;;;0.08;0.08;;;;;;;;;;5011567;28;20129;-70
2022/06/28 10:43:38;;;;;;;0.20;0.20;;;;;;;;;;5007272;28;20921;-69
2022/06/28 10:46:08;;;;;;;0.10;0.10;;;;;;;;;;5013893;28;20386;-69
2022/06/28 10:48:55;;;;;;;0.08;0.08;;;;;;;;;;5010085;28;20165;-69
2022/06/28 10:51:25;;;;;;;0.22;0.22;;;;;;;;;;5010189;28;20567;-69
2022/06/28 10:54:01;;;;;;;0.10;0.10;;;;;;;;;;5000552;28;20054;-69
2022/06/28 10:56:31;;;;;;;0.20;0.20;;;;;;;;;;5006324;28;20091;-69
2022/06/28 10:59:00;;;;;;;0.25;0.25;;;;;;;;;;5012873;28;20132;-68
2022/06/28 11:01:47;;;;;;;0.30;0.30;;;;;;;;;;5006046;28;20050;-69
2022/06/28 11:04:23;;;;;;;0.65;0.20;;;;;;;;;;5011127;28;20054;-69
2022/06/28 11:06:53;;;;;;;0.22;0.22;;;;;;;;;;5002245;28;20053;-69
2022/06/28 11:09:27;;;;;;;0.03;0.03;;;;;;;;;;5011507;28;20082;-68
2022/06/28 11:12:05;;;;;;;0.00;0.00;;;;;;;;;;5013015;28;20046;-69
2022/06/28 11:14:36;;;;;;;0.13;0.13;;;;;;;;;;5010981;28;20129;-69
2022/06/28 11:17:15;;;;;;;0.52;0.20;;;;;;;;;;5006481;28;20962;-69
2022/06/28 11:19:50;;;;;;;0.45;0.30;;;;;;;;;;5012070;28;20575;-69
2022/06/28 11:22:22;;;;;;;0.00;0.00;;;;;;;;;;5009233;28;20108;-68
2022/06/28 11:24:51;;;;;;;0.20;0.20;;;;;;;;;;5011029;28;20054;-68
2022/06/28 11:27:22;;;;;;;0.75;0.47;;;;;;;;;;5010614;28;20082;-70
2022/06/28 11:29:52;;;;;;;0.22;0.22;;;;;;;;;;5004249;28;20386;-68
2022/06/28 11:32:22;;;;;;;0.20;0.20;;;;;;;;;;5010938;28;20058;-69
2022/06/28 11:34:58;;;;;;;0.00;0.00;;;;;;;;;;5008400;28;20057;-69
2022/06/28 11:37:29;;;;;;;0.17;0.17;;;;;;;;;;5011062;28;20116;-69
2022/06/28 11:39:59;;;;;;;0.10;0.10;;;;;;;;;;5009807;28;20129;-69
2022/06/28 11:42:28;;;;;;;0.10;0.10;;;;;;;;;;5004142;28;20155;-69
2022/06/28 11:44:57;;;;;;;0.40;0.40;;;;;;;;;;5008823;28;20057;-69
2022/06/28 11:47:26;;;;;;;0.10;0.10;;;;;;;;;;5011447;28;20054;-69
2022/06/28 11:50:14;;;;;;;0.20;0.15;;;;;;;;;;5009816;28;20111;-69
2022/06/28 11:52:52;;;;;;;0.65;0.65;;;;;;;;;;4981834;28;20046;-69
2022/06/28 11:55:37;;;;;;;0.10;0.10;;;;;;;;;;5007114;28;20127;-70
2022/06/28 11:58:13;;;;;;;0.30;0.30;;;;;;;;;;5010320;28;20394;-70
2022/06/28 12:00:41;;;;;;;0.00;0.00;;;;;;;;;;5010388;28;20513;-69
2022/06/28 12:03:12;;;;;;;0.25;0.25;;;;;;;;;;5010002;28;20153;-68
2022/06/28 12:05:40;;;;;;;0.08;0.08;;;;;;;;;;5005978;28;20057;-68
2022/06/28 12:08:11;;;;;;;0.00;0.00;;;;;;;;;;5011042;28;20061;-69
2022/06/28 12:10:39;;;;;;;0.00;0.00;;;;;;;;;;5000735;28;20053;-68
2022/06/28 12:13:11;;;;;;;0.10;0.10;;;;;;;;;;5011068;28;20096;-69
2022/06/28 12:15:40;;;;;;;0.00;0.00;;;;;;;;;;5011188;28;20497;-69
2022/06/28 12:18:09;;;;;;;0.38;0.20;;;;;;;;;;5006234;28;20080;-69
2022/06/28 12:20:38;;;;;;;0.05;0.05;;;;;;;;;;5010514;28;20050;-68
2022/06/28 12:23:07;;;;;;;0.00;0.00;;;;;;;;;;5008892;28;20310;-69
2022/06/28 12:25:37;;;;;;;0.20;0.17;;;;;;;;;;5009619;28;20046;-69
2022/06/28 12:28:06;;;;;;;0.10;0.10;;;;;;;;;;5004047;28;20050;-69
2022/06/28 12:30:35;;;;;;;0.20;0.20;;;;;;;;;;5001469;28;20053;-69
2022/06/28 12:33:03;;;;;;;0.22;0.20;;;;;;;;;;5013959;28;20511;-69
2022/06/28 12:35:32;;;;;;;0.00;0.00;;;;;;;;;;5010724;28;20057;-69
2022/06/28 12:38:00;;;;;;;0.22;0.17;;;;;;;;;;5009272;28;20081;-69
2022/06/28 12:40:29;;;;;;;0.00;0.00;;;;;;;;;;5009966;28;20491;-69
2022/06/28 12:42:59;;;;;;;0.10;0.10;;;;;;;;;;5001374;28;20145;-69
2022/06/28 12:45:27;;;;;;;0.40;0.40;;;;;;;;;;5012198;28;20066;-69
2022/06/28 12:47:56;;;;;;;0.00;0.00;;;;;;;;;;5000730;28;20504;-69
2022/06/28 12:50:25;;;;;;;0.43;0.10;;;;;;;;;;5010836;28;20568;-69
2022/06/28 12:52:53;;;;;;;0.10;0.10;;;;;;;;;;5009201;28;20116;-69
2022/06/28 12:55:22;;;;;;;0.17;0.15;;;;;;;;;;5009443;28;20049;-69
2022/06/28 12:57:50;;;;;;;0.00;0.00;;;;;;;;;;5007820;28;20042;-69
2022/06/28 13:00:21;;;;;;;0.10;0.10;;;;;;;;;;5010688;28;20042;-69
2022/06/28 13:02:52;;;;;;;0.00;0.00;;;;;;;;;;5000359;28;20054;-69
2022/06/28 13:05:22;;;;;;;0.30;0.30;;;;;;;;;;5008729;28;20073;-69
2022/06/28 13:07:52;;;;;;;0.00;0.00;;;;;;;;;;5010285;28;20053;-69
2022/06/28 13:10:20;;;;;;;0.17;0.17;;;;;;;;;;5003263;28;20050;-69
2022/06/28 13:12:49;;;;;;;0.00;0.00;;;;;;;;;;5009450;28;20050;-69
2022/06/28 13:15:18;;;;;;;0.40;0.25;;;;;;;;;;5011190;28;20053;-69
2022/06/28 13:17:48;;;;;;;0.20;0.20;;;;;;;;;;5008566;28;20053;-69
2022/06/28 13:20:18;;;;;;;0.35;0.35;;;;;;;;;;5006198;28;20054;-69
2022/06/28 13:22:56;;;;;;;0.20;0.20;;;;;;;;;;5000391;28;20056;-69
2022/06/28 13:25:25;;;;;;;0.10;0.10;;;;;;;;;;5008077;28;20041;-69
2022/06/28 13:27:54;;;;;;;0.10;0.08;;;;;;;;;;5008900;28;20057;-69
2022/06/28 13:30:22;;;;;;;0.10;0.10;;;;;;;;;;4994432;28;20069;-69
2022/06/28 13:32:52;;;;;;;0.22;0.20;;;;;;;;;;5000950;28;20100;-69
2022/06/28 13:35:22;;;;;;;0.10;0.10;;;;;;;;;;5009765;28;20037;-70
2022/06/28 13:37:50;;;;;;;0.35;0.17;;;;;;;;;;5006725;28;20048;-70
2022/06/28 13:40:19;;;;;;;0.08;0.08;;;;;;;;;;4996455;28;20481;-71
2022/06/28 13:42:48;;;;;;;0.13;0.13;;;;;;;;;;5013101;28;20053;-69
2022/06/28 13:45:17;;;;;;;0.30;0.25;;;;;;;;;;5009556;28;20064;-69
2022/06/28 13:47:46;;;;;;;0.05;0.05;;;;;;;;;;5006242;28;20045;-69
2022/06/28 13:50:16;;;;;;;0.10;0.10;;;;;;;;;;5007924;28;20061;-70
2022/06/28 13:52:52;;;;;;;0.08;0.08;;;;;;;;;;5008894;28;20486;-70
2022/06/28 13:55:23;;;;;;;0.00;0.00;;;;;;;;;;5004341;28;20046;-70
2022/06/28 13:57:52;;;;;;;0.20;0.20;;;;;;;;;;5000167;28;20530;-70
2022/06/28 14:00:21;;;;;;;0.40;0.40;;;;;;;;;;5005154;28;20052;-69
2022/06/28 14:02:50;;;;;;;1.15;0.40;;;;;;;;;;5006265;28;20053;-70
2022/06/28 14:05:20;;;;;;;0.00;0.00;;;;;;;;;;5005232;28;20084;-70
2022/06/28 14:07:49;;;;;;;0.00;0.00;;;;;;;;;;5004159;28;20050;-68
2022/06/28 14:10:18;;;;;;;0.22;0.20;;;;;;;;;;5002910;28;20409;-69
2022/06/28 14:12:47;;;;;;;0.45;0.45;;;;;;;;;;5006046;28;20552;-70
2022/06/28 14:15:15;;;;;;;0.03;0.03;;;;;;;;;;5009000;28;20053;-70
2022/06/28 14:17:44;;;;;;;0.00;0.00;;;;;;;;;;5004712;28;20124;-69
2022/06/28 14:20:12;;;;;;;0.20;0.20;;;;;;;;;;5007385;28;20073;-70
2022/06/28 14:22:42;;;;;;;0.00;0.00;;;;;;;;;;4996406;28;20050;-70
2022/06/28 14:25:11;;;;;;;0.57;0.50;;;;;;;;;;5004012;28;20445;-69
2022/06/28 14:27:41;;;;;;;0.25;0.25;;;;;;;;;;5002879;28;20049;-69
2022/06/28 14:30:28;;;;;;;0.10;0.10;;;;;;;;;;5000941;28;20431;-69
2022/06/28 14:32:57;;;;;;;0.00;0.00;;;;;;;;;;5003303;28;20050;-69
2022/06/28 14:35:29;;;;;;;0.08;0.08;;;;;;;;;;5001053;28;20046;-69
2022/06/28 14:38:19;;;;;;;0.17;0.17;;;;;;;;;;5010264;28;20057;-70
2022/06/28 14:40:48;;;;;;;0.00;0.00;;;;;;;;;;5010837;28;20053;-70
2022/06/28 14:43:16;;;;;;;0.40;0.20;;;;;;;;;;5010505;28;20061;-69
2022/06/28 14:45:45;;;;;;;0.00;0.00;;;;;;;;;;5005228;28;20066;-69
2022/06/28 14:48:23;;;;;;;0.00;0.00;;;;;;;;;;5007126;28;20224;-70
2022/06/28 14:50:52;;;;;;;0.00;0.00;;;;;;;;;;5010875;28;20046;-70
2022/06/28 14:53:24;;;;;;;0.10;0.10;;;;;;;;;;5003233;28;20290;-70
2022/06/28 14:55:54;;;;;;;1.02;0.32;;;;;;;;;;5011906;28;20080;-70
2022/06/28 14:58:23;;;;;;;0.10;0.10;;;;;;;;;;4996208;28;20046;-70
2022/06/28 15:00:59;;;;;;;0.20;0.10;;;;;;;;;;5012896;28;20064;-70
2022/06/28 15:03:27;;;;;;;0.20;0.20;;;;;;;;;;5007512;28;20926;-70
2022/06/28 15:05:56;;;;;;;0.65;0.10;;;;;;;;;;5004559;28;20050;-70
2022/06/28 15:08:30;;;;;;;0.10;0.10;;;;;;;;;;5000662;28;20132;-70
2022/06/28 15:10:59;;;;;;;0.20;0.20;;;;;;;;;;4999680;28;20046;-70
2022/06/28 15:13:29;;;;;;;0.00;0.00;;;;;;;;;;4962004;28;1141115;-70
2022/06/28 15:15:58;;;;;;;0.38;0.28;;;;;;;;;;5007571;28;20064;-70